createdAt,value
2023-04-17T16:01:21.158Z,101685.63
2023-04-17T16:06:27.667Z,101682.06
2023-04-17T16:11:33.247Z,101682.63
2023-04-17T16:16:41.363Z,101677.44
2023-04-17T16:21:46.609Z,101676.72
2023-04-17T16:26:57.468Z,101681.63
2023-04-17T16:32:05.668Z,101678.66
2023-04-17T16:37:11.184Z,101677.41
2023-04-17T16:42:16.459Z,101682.06
2023-04-17T16:47:24.578Z,101678.69
2023-04-17T16:52:30.026Z,101678.72
2023-04-17T16:57:38.328Z,101680.16
2023-04-17T17:02:46.503Z,101672.97
2023-04-17T17:07:51.950Z,101675.47
2023-04-17T17:12:57.123Z,101671.16
2023-04-17T17:18:05.079Z,101669.41
2023-04-17T17:23:10.626Z,101666.75
2023-04-17T17:28:15.987Z,101670.97
2023-04-17T17:33:24.070Z,101669.16
2023-04-17T17:38:32.832Z,101677.09
2023-04-17T17:43:38.107Z,101678.16
2023-04-17T17:48:46.263Z,101684.38
2023-04-17T17:53:51.682Z,101683.66
2023-04-17T17:58:56.988Z,101689.69
2023-04-17T18:04:05.160Z,101688.03
2023-04-17T18:09:10.647Z,101682.94
2023-04-17T18:14:16.042Z,101685.63
2023-04-17T18:19:24.124Z,101690.06
2023-04-17T18:24:29.376Z,101702.28
2023-04-17T18:29:34.933Z,101695.66
2023-04-17T18:34:44.052Z,101705.50
2023-04-17T18:39:49.409Z,101708.41
2023-04-17T18:44:54.987Z,101725.03
2023-04-17T18:50:03.979Z,101727.78
2023-04-17T18:55:10.631Z,101719.41
2023-04-17T19:00:16.930Z,101732.47
2023-04-17T19:05:26.142Z,101738.66
2023-04-17T19:10:31.487Z,101732.78
2023-04-17T19:15:36.837Z,101732.00
2023-04-17T19:20:44.844Z,101732.13
2023-04-17T19:25:55.339Z,101737.34
2023-04-17T19:31:01.103Z,101735.69
2023-04-17T19:36:09.158Z,101738.38
2023-04-17T19:41:17.669Z,101734.16
2023-04-17T19:46:23.755Z,101741.13
2023-04-17T19:51:31.716Z,101742.03
2023-04-17T19:56:37.184Z,101736.94
2023-04-17T20:01:43.753Z,101732.69
2023-04-17T20:06:52.018Z,101737.88
2023-04-17T20:11:57.461Z,101738.72
2023-04-17T20:17:02.859Z,101735.31
2023-04-17T20:22:11.556Z,101732.75
2023-04-17T20:27:17.005Z,101730.19
2023-04-17T20:32:23.390Z,101737.06
2023-04-17T20:37:31.640Z,101728.47
2023-04-17T20:42:36.957Z,101731.91
2023-04-17T20:47:55.321Z,101725.06
2023-04-17T20:53:04.811Z,101725.03
2023-04-17T20:58:10.159Z,101719.00
2023-04-17T21:03:15.608Z,101712.13
2023-04-17T21:08:23.792Z,101710.38
2023-04-17T21:13:29.229Z,101712.13
2023-04-17T21:18:34.505Z,101709.53
2023-04-17T21:23:42.389Z,101702.66
2023-04-17T21:28:47.764Z,101707.78
2023-04-17T21:33:53.468Z,101701.81
2023-04-17T21:39:01.236Z,101703.50
2023-04-17T21:44:06.536Z,101706.09
2023-04-17T21:49:11.945Z,101707.00
2023-04-17T21:54:19.762Z,101708.72
2023-04-17T21:59:25.142Z,101711.28
2023-04-17T22:04:30.466Z,101705.28
2023-04-17T22:09:38.312Z,101707.00
2023-04-17T22:14:43.608Z,101707.88
2023-04-17T22:19:48.862Z,101706.19
2023-04-17T22:24:56.574Z,101707.91
2023-04-17T22:30:01.974Z,101716.50
2023-04-17T22:35:08.240Z,101713.91
2023-04-17T22:40:16.983Z,101725.06
